createdAt,value
2023-09-02T00:00:07.193Z,24.42
2023-09-02T00:02:35.317Z,24.25
2023-09-02T00:05:03.786Z,24.23
2023-09-02T00:07:33.138Z,23.10
2023-09-02T00:10:01.109Z,23.20
2023-09-02T00:12:29.023Z,23.13
2023-09-02T00:14:56.981Z,22.58
2023-09-02T00:17:26.330Z,21.48
2023-09-02T00:19:54.897Z,22.73
2023-09-02T00:22:22.931Z,23.42
2023-09-02T00:24:52.187Z,21.23
2023-09-02T00:27:20.135Z,22.77
2023-09-02T00:29:48.137Z,23.05
2023-09-02T00:32:16.115Z,22.48
2023-09-02T00:34:44.135Z,22.65
2023-09-02T00:37:12.110Z,22.95
2023-09-02T00:39:40.293Z,22.65
2023-09-02T00:42:13.261Z,20.70
2023-09-02T00:44:42.426Z,20.27
2023-09-02T00:47:10.513Z,21.13
2023-09-02T00:49:38.499Z,22.40
2023-09-02T00:52:08.833Z,19.70
2023-09-02T00:54:37.034Z,20.55
2023-09-02T00:57:05.637Z,20.05
2023-09-02T00:59:35.463Z,19.48
2023-09-02T01:02:06.414Z,19.25
2023-09-02T01:04:35.585Z,18.48
2023-09-02T01:07:04.686Z,18.33
2023-09-02T01:09:33.698Z,17.23
2023-09-02T01:12:01.689Z,16.63
2023-09-02T01:14:30.805Z,16.52
2023-09-02T01:17:02.786Z,17.25
2023-09-02T01:19:31.395Z,16.50
2023-09-02T01:22:12.081Z,17.63
2023-09-02T01:25:13.928Z,15.65
2023-09-02T01:27:46.035Z,16.60
2023-09-02T01:30:17.238Z,13.70
2023-09-02T01:32:49.121Z,14.30
2023-09-02T01:35:20.017Z,13.60
2023-09-02T01:37:51.435Z,13.55
2023-09-02T01:40:26.602Z,15.07
2023-09-02T01:43:00.086Z,13.82
2023-09-02T01:45:31.936Z,14.63
2023-09-02T01:48:02.815Z,13.52
2023-09-02T01:50:33.888Z,12.27
2023-09-02T01:53:03.321Z,12.48
2023-09-02T01:55:31.562Z,11.90
2023-09-02T01:58:01.786Z,11.82
2023-09-02T02:00:30.223Z,12.30
2023-09-02T02:03:00.269Z,11.90
2023-09-02T02:05:35.062Z,10.48
2023-09-02T02:08:10.484Z,10.77
2023-09-02T02:10:40.216Z,11.93
2023-09-02T02:13:10.032Z,11.52
2023-09-02T02:15:38.006Z,11.35
2023-09-02T02:18:06.456Z,10.38
2023-09-02T02:20:45.739Z,12.18
2023-09-02T02:23:14.119Z,12.45
2023-09-02T02:25:42.077Z,11.43
2023-09-02T02:28:11.688Z,11.57
2023-09-02T02:30:39.577Z,11.75
2023-09-02T02:33:07.574Z,12.32
2023-09-02T02:35:35.567Z,11.70
2023-09-02T02:38:03.608Z,13.05
2023-09-02T02:40:32.494Z,13.25
2023-09-02T02:43:00.563Z,12.52
2023-09-02T02:45:30.637Z,13.00
2023-09-02T02:47:59.776Z,13.15
2023-09-02T02:50:27.762Z,14.23
2023-09-02T02:52:55.681Z,15.13
2023-09-02T02:55:23.628Z,14.25
2023-09-02T02:57:51.604Z,14.27
2023-09-02T03:00:19.637Z,13.55
2023-09-02T03:02:49.029Z,13.95
2023-09-02T03:05:20.134Z,13.50
2023-09-02T03:07:48.226Z,15.00
2023-09-02T03:10:16.346Z,15.75
2023-09-02T03:12:44.256Z,14.40
2023-09-02T03:15:13.058Z,15.57
2023-09-02T03:17:40.977Z,15.88
2023-09-02T03:20:12.111Z,15.43
2023-09-02T03:22:42.771Z,16.08
2023-09-02T03:25:10.918Z,16.08
2023-09-02T03:27:39.244Z,14.60
2023-09-02T03:30:08.770Z,14.82
2023-09-02T03:32:37.040Z,15.02
2023-09-02T03:35:08.571Z,14.32
2023-09-02T03:37:37.958Z,15.70
2023-09-02T03:40:06.829Z,14.13
2023-09-02T03:42:34.722Z,14.73
2023-09-02T03:45:03.840Z,15.60
2023-09-02T03:47:33.090Z,17.20
2023-09-02T03:50:01.428Z,15.88
2023-09-02T03:52:30.078Z,16.40
2023-09-02T03:55:00.200Z,17.15
2023-09-02T03:57:28.512Z,17.85
2023-09-02T03:59:56.577Z,17.35
2023-09-02T04:02:24.538Z,19.17
2023-09-02T04:04:52.458Z,17.38
2023-09-02T04:07:20.842Z,17.25
2023-09-02T04:09:48.863Z,18.95
2023-09-02T04:12:18.168Z,18.60
2023-09-02T04:14:46.065Z,16.58
2023-09-02T04:17:14.546Z,17.27
2023-09-02T04:19:42.604Z,19.30
2023-09-02T04:22:10.603Z,19.27
2023-09-02T04:24:39.061Z,19.15
2023-09-02T04:27:06.992Z,19.10
2023-09-02T04:29:36.293Z,20.00
2023-09-02T04:32:04.760Z,17.60
2023-09-02T04:34:32.767Z,19.67
2023-09-02T04:37:00.710Z,16.95
2023-09-02T04:39:31.038Z,17.55
2023-09-02T04:41:59.180Z,17.38
2023-09-02T04:44:27.239Z,14.55
2023-09-02T04:46:56.942Z,17.77
2023-09-02T04:49:25.791Z,17.40
2023-09-02T04:51:53.724Z,13.45
2023-09-02T04:54:21.625Z,13.15
2023-09-02T04:56:49.582Z,12.75
2023-09-02T04:59:17.772Z,11.88
2023-09-02T05:01:45.859Z,12.48
2023-09-02T05:04:15.249Z,12.95
2023-09-02T05:06:43.167Z,13.20
2023-09-02T05:09:11.295Z,16.67
2023-09-02T05:11:39.260Z,15.10
2023-09-02T05:14:07.557Z,15.05
2023-09-02T05:16:35.579Z,14.70
2023-09-02T05:19:03.922Z,14.30
2023-09-02T05:21:33.297Z,12.73
2023-09-02T05:24:01.268Z,14.70
2023-09-02T05:26:29.873Z,14.20
2023-09-02T05:28:57.783Z,15.13
2023-09-02T05:31:26.398Z,16.88
2023-09-02T05:33:54.351Z,17.05
2023-09-02T05:36:22.406Z,16.50
2023-09-02T05:38:51.776Z,18.35
2023-09-02T05:41:19.691Z,16.55
2023-09-02T05:43:47.623Z,15.68
2023-09-02T05:46:15.609Z,16.20
2023-09-02T05:48:43.642Z,16.35
2023-09-02T05:51:11.535Z,16.25
2023-09-02T05:53:39.467Z,16.08
2023-09-02T05:56:08.761Z,14.68
2023-09-02T05:58:36.732Z,13.48
2023-09-02T06:01:05.825Z,13.98
2023-09-02T06:03:34.119Z,11.23
2023-09-02T06:06:02.096Z,13.27
2023-09-02T06:08:30.789Z,13.63
2023-09-02T06:10:59.965Z,14.20
2023-09-02T06:13:29.459Z,15.95
2023-09-02T06:16:00.281Z,15.00
2023-09-02T06:18:31.064Z,15.07
2023-09-02T06:20:59.492Z,16.45
2023-09-02T06:23:28.455Z,16.27
2023-09-02T06:26:02.614Z,15.65
2023-09-02T06:28:32.089Z,15.88
2023-09-02T06:31:00.319Z,13.82
2023-09-02T06:33:28.640Z,15.38
2023-09-02T06:35:56.797Z,14.35
2023-09-02T06:38:24.714Z,14.88
2023-09-02T06:40:52.669Z,14.40
2023-09-02T06:43:21.008Z,15.82
2023-09-02T06:45:50.493Z,15.63
2023-09-02T06:48:18.406Z,15.32
2023-09-02T06:50:48.465Z,15.27
2023-09-02T06:53:16.892Z,14.48
2023-09-02T06:55:45.258Z,14.68
2023-09-02T06:58:13.339Z,14.18
2023-09-02T07:00:41.472Z,14.68
2023-09-02T07:03:11.012Z,13.52
2023-09-02T07:05:38.983Z,13.05
2023-09-02T07:08:07.482Z,14.10
2023-09-02T07:10:35.496Z,13.65
2023-09-02T07:13:05.062Z,12.95
2023-09-02T07:15:33.092Z,12.63
2023-09-02T07:18:02.996Z,12.07
2023-09-02T07:20:37.847Z,11.85
2023-09-02T07:23:06.118Z,10.80
2023-09-02T07:25:34.177Z,9.35
2023-09-02T07:28:02.200Z,9.45
2023-09-02T07:30:30.405Z,9.35
2023-09-02T07:33:00.283Z,10.60
2023-09-02T07:35:28.787Z,10.38
2023-09-02T07:37:59.861Z,11.20
2023-09-02T07:40:27.965Z,12.02
2023-09-02T07:42:55.887Z,10.63
2023-09-02T07:45:23.806Z,10.60
2023-09-02T07:47:52.965Z,12.88
2023-09-02T07:50:20.979Z,13.45
2023-09-02T07:52:49.748Z,11.68
2023-09-02T07:55:19.310Z,12.15
2023-09-02T07:57:47.435Z,13.18
2023-09-02T08:00:15.598Z,11.80
2023-09-02T08:02:43.729Z,12.73
2023-09-02T08:05:12.049Z,14.50
2023-09-02T08:07:40.026Z,12.55
2023-09-02T08:10:09.227Z,11.63
2023-09-02T08:12:38.662Z,10.65
2023-09-02T08:15:07.618Z,11.13
2023-09-02T08:17:42.419Z,11.10
2023-09-02T08:20:12.244Z,11.38
2023-09-02T08:22:43.901Z,10.77
2023-09-02T08:25:12.334Z,10.75
2023-09-02T08:27:46.190Z,11.52
2023-09-02T08:30:14.587Z,12.07
2023-09-02T08:32:43.011Z,12.05
2023-09-02T08:35:13.357Z,12.45
2023-09-02T08:37:41.373Z,11.90
2023-09-02T08:40:10.454Z,12.52
2023-09-02T08:42:38.768Z,13.32
2023-09-02T08:45:12.907Z,12.43
2023-09-02T08:47:42.177Z,13.95
2023-09-02T08:50:11.405Z,14.25
2023-09-02T08:52:41.503Z,13.75
2023-09-02T08:55:13.073Z,13.40
2023-09-02T08:57:41.770Z,14.27
2023-09-02T09:00:11.884Z,14.75
2023-09-02T09:02:40.356Z,15.00
2023-09-02T09:05:10.830Z,15.20
2023-09-02T09:07:41.220Z,14.45
2023-09-02T09:10:11.519Z,16.73
2023-09-02T09:12:39.644Z,16.38
2023-09-02T09:15:11.083Z,17.20
2023-09-02T09:17:40.655Z,16.13
2023-09-02T09:20:09.731Z,16.17
2023-09-02T09:22:40.279Z,16.50
2023-09-02T09:25:11.372Z,16.30
2023-09-02T09:27:39.750Z,16.67
2023-09-02T09:30:09.024Z,15.65
2023-09-02T09:32:37.064Z,17.30
2023-09-02T09:35:23.332Z,17.13
2023-09-02T09:37:54.974Z,17.20
2023-09-02T09:40:31.601Z,15.43
2023-09-02T09:42:59.892Z,14.65
2023-09-02T09:45:28.018Z,17.00
2023-09-02T09:47:59.605Z,16.25
2023-09-02T09:50:30.596Z,17.70
2023-09-02T09:53:03.862Z,17.55
2023-09-02T09:55:32.025Z,16.17
2023-09-02T09:58:01.155Z,16.40
2023-09-02T10:00:30.644Z,17.25
2023-09-02T10:03:00.558Z,17.02
2023-09-02T10:05:31.853Z,18.60
2023-09-02T10:08:02.273Z,17.30
2023-09-02T10:10:32.023Z,18.20
2023-09-02T10:13:03.870Z,18.15
2023-09-02T10:15:32.761Z,17.88
2023-09-02T10:18:01.865Z,18.00
2023-09-02T10:20:32.612Z,16.25
2023-09-02T10:23:06.709Z,17.85
2023-09-02T10:25:45.215Z,23.90
2023-09-02T10:28:16.069Z,18.77
2023-09-02T10:30:49.677Z,24.23
2023-09-02T10:33:26.049Z,18.55
2023-09-02T10:36:01.514Z,17.77
2023-09-02T10:38:31.426Z,18.15
2023-09-02T10:41:13.612Z,18.85
2023-09-02T10:43:43.644Z,18.10
2023-09-02T10:46:12.011Z,19.75
2023-09-02T10:48:42.256Z,20.40
2023-09-02T10:51:13.166Z,18.58
2023-09-02T10:54:03.160Z,20.25
2023-09-02T10:56:33.157Z,17.95
2023-09-02T10:59:02.038Z,18.08
2023-09-02T11:01:45.908Z,18.55
2023-09-02T11:04:14.051Z,17.17
2023-09-02T11:07:15.405Z,18.55
2023-09-02T11:09:55.132Z,17.25
2023-09-02T11:12:23.780Z,17.48
2023-09-02T11:15:21.682Z,16.50
2023-09-02T11:17:49.740Z,16.52
2023-09-02T11:20:20.642Z,16.42
2023-09-02T11:22:57.589Z,16.60
2023-09-02T11:25:31.978Z,16.27
2023-09-02T11:28:04.511Z,16.40
2023-09-02T11:30:34.861Z,16.60
2023-09-02T11:33:02.930Z,16.02
2023-09-02T11:35:32.166Z,16.10
2023-09-02T11:38:04.179Z,17.45
2023-09-02T11:40:33.462Z,15.38
2023-09-02T11:43:02.849Z,15.93
2023-09-02T11:45:33.325Z,15.95
2023-09-02T11:48:02.387Z,16.63
2023-09-02T11:50:30.748Z,15.88
2023-09-02T11:53:06.179Z,17.00
2023-09-02T11:55:37.853Z,16.80
2023-09-02T11:58:11.659Z,17.63
2023-09-02T12:00:44.535Z,16.20
2023-09-02T12:03:12.719Z,16.88
2023-09-02T12:05:48.430Z,16.50
2023-09-02T12:08:17.190Z,15.95
2023-09-02T12:10:48.485Z,16.25
2023-09-02T12:13:17.178Z,15.07
2023-09-02T12:15:49.973Z,15.93
2023-09-02T12:18:18.526Z,16.70
2023-09-02T12:20:46.863Z,14.35
2023-09-02T12:23:15.271Z,14.90
2023-09-02T12:25:43.324Z,17.08
2023-09-02T12:28:14.652Z,16.08
2023-09-02T12:30:43.219Z,15.75
2023-09-02T12:33:11.216Z,15.48
2023-09-02T12:35:39.265Z,15.73
2023-09-02T12:38:10.054Z,16.60
2023-09-02T12:40:38.360Z,15.63
2023-09-02T12:43:06.383Z,15.10
2023-09-02T12:45:41.701Z,14.65
2023-09-02T12:48:10.178Z,15.30
2023-09-02T12:50:39.913Z,15.10
2023-09-02T12:53:14.427Z,14.85
2023-09-02T12:55:42.841Z,14.15
2023-09-02T12:58:11.317Z,13.60
2023-09-02T13:00:40.620Z,12.20
2023-09-02T13:03:09.019Z,13.27
2023-09-02T13:05:37.198Z,13.13
2023-09-02T13:08:06.259Z,13.23
2023-09-02T13:10:34.945Z,14.60
2023-09-02T13:13:02.939Z,13.98
2023-09-02T13:15:30.985Z,15.18
2023-09-02T13:18:01.143Z,13.77
2023-09-02T13:20:29.270Z,17.77
2023-09-02T13:22:57.595Z,14.48
2023-09-02T13:25:28.597Z,13.68
2023-09-02T13:27:56.751Z,14.20
2023-09-02T13:30:25.735Z,13.13
2023-09-02T13:32:53.705Z,14.57
2023-09-02T13:35:25.186Z,13.40
2023-09-02T13:37:53.487Z,15.73
2023-09-02T13:40:34.277Z,14.88
2023-09-02T13:43:06.826Z,14.57
2023-09-02T13:45:38.190Z,12.07
2023-09-02T13:48:09.013Z,14.05
2023-09-02T13:50:39.715Z,13.82
2023-09-02T13:53:10.232Z,13.50
2023-09-02T13:55:41.954Z,13.15
2023-09-02T13:58:15.417Z,13.50
2023-09-02T14:00:44.077Z,13.65
2023-09-02T14:03:19.028Z,12.35
2023-09-02T14:05:49.842Z,13.77
2023-09-02T14:08:22.896Z,13.98
2023-09-02T14:10:51.540Z,13.55
2023-09-02T14:13:20.017Z,12.75
2023-09-02T14:15:48.254Z,11.90
2023-09-02T14:18:17.121Z,13.50
2023-09-02T14:20:45.133Z,12.18
2023-09-02T14:23:14.388Z,11.70
2023-09-02T14:25:42.365Z,11.60
2023-09-02T14:28:12.493Z,12.55
2023-09-02T14:30:40.631Z,13.57
2023-09-02T14:33:08.763Z,12.93
2023-09-02T14:35:36.720Z,13.13
2023-09-02T14:38:04.988Z,13.80
2023-09-02T14:40:35.766Z,12.68
2023-09-02T14:43:05.326Z,13.57
2023-09-02T14:45:34.000Z,13.27
2023-09-02T14:48:02.243Z,13.07
2023-09-02T14:50:30.736Z,12.65
2023-09-02T14:52:58.819Z,11.90
2023-09-02T14:55:27.985Z,15.37
2023-09-02T14:57:57.784Z,10.80
2023-09-02T15:00:26.452Z,10.70
2023-09-02T15:02:55.942Z,10.98
2023-09-02T15:05:27.852Z,11.02
2023-09-02T15:07:58.850Z,10.32
2023-09-02T15:10:28.811Z,10.68
2023-09-02T15:13:00.096Z,9.85
2023-09-02T15:15:38.239Z,9.82
2023-09-02T15:18:09.892Z,9.30
2023-09-02T15:20:37.827Z,8.00
2023-09-02T15:23:06.100Z,8.57
2023-09-02T15:25:34.466Z,7.47
2023-09-02T15:28:06.408Z,7.95
2023-09-02T15:30:36.264Z,7.85
2023-09-02T15:33:05.826Z,8.52
2023-09-02T15:35:35.523Z,7.32
2023-09-02T15:38:03.988Z,6.78
2023-09-02T15:40:33.420Z,6.78
2023-09-02T15:43:03.943Z,6.30
2023-09-02T15:45:32.108Z,5.85
2023-09-02T15:48:01.377Z,5.93
2023-09-02T15:50:31.196Z,5.40
2023-09-02T15:52:59.746Z,4.97
2023-09-02T15:55:27.695Z,4.65
2023-09-02T15:57:57.278Z,4.25
2023-09-02T16:00:27.005Z,4.43
2023-09-02T16:02:57.024Z,5.15
2023-09-02T16:05:25.341Z,4.63
2023-09-02T16:07:53.266Z,4.28
2023-09-02T16:10:21.242Z,3.70
2023-09-02T16:12:49.196Z,4.30
2023-09-02T16:15:17.560Z,3.65
2023-09-02T16:17:46.958Z,3.53
2023-09-02T16:20:14.921Z,3.83
2023-09-02T16:22:43.285Z,3.35
2023-09-02T16:25:11.924Z,4.63
2023-09-02T16:27:40.441Z,3.25
2023-09-02T16:30:10.957Z,3.47
2023-09-02T16:32:39.503Z,4.15
2023-09-02T16:35:09.955Z,3.78
2023-09-02T16:37:42.661Z,3.55
2023-09-02T16:40:12.189Z,3.05
2023-09-02T16:42:42.057Z,3.72
2023-09-02T16:45:14.470Z,3.50
2023-09-02T16:47:45.685Z,2.95
2023-09-02T16:50:16.815Z,2.83
2023-09-02T16:52:46.104Z,3.45
2023-09-02T16:55:17.594Z,3.28
2023-09-02T16:57:47.631Z,3.28
2023-09-02T17:00:17.887Z,3.22
2023-09-02T17:02:48.056Z,3.03
2023-09-02T17:05:20.058Z,3.80
2023-09-02T17:07:48.680Z,3.15
2023-09-02T17:10:19.153Z,3.30
2023-09-02T17:12:47.106Z,3.10
2023-09-02T17:15:16.806Z,3.72
2023-09-02T17:17:48.104Z,3.42
2023-09-02T17:20:25.933Z,3.38
2023-09-02T17:22:54.168Z,3.30
2023-09-02T17:25:22.440Z,3.05
2023-09-02T17:27:54.232Z,3.63
2023-09-02T17:30:23.439Z,3.85
2023-09-02T17:32:51.747Z,4.70
2023-09-02T17:35:21.344Z,5.10
2023-09-02T17:37:49.314Z,4.50
2023-09-02T17:40:17.308Z,5.32
2023-09-02T17:42:46.127Z,5.80
2023-09-02T17:45:15.755Z,5.43
2023-09-02T17:47:45.092Z,5.22
2023-09-02T17:50:14.260Z,4.55
2023-09-02T17:52:45.123Z,5.13
2023-09-02T17:55:13.034Z,4.70
2023-09-02T17:57:41.009Z,4.97
2023-09-02T18:00:11.433Z,4.47
2023-09-02T18:02:39.708Z,3.95
2023-09-02T18:05:10.602Z,4.18
2023-09-02T18:07:39.480Z,4.57
2023-09-02T18:10:13.200Z,4.13
2023-09-02T18:12:42.235Z,3.90
2023-09-02T18:15:12.031Z,3.17
2023-09-02T18:17:40.214Z,3.10
2023-09-02T18:20:09.553Z,3.05
2023-09-02T18:22:37.617Z,4.50
2023-09-02T18:25:06.420Z,3.83
2023-09-02T18:27:35.799Z,3.60
2023-09-02T18:30:03.837Z,3.30
2023-09-02T18:32:32.000Z,3.33
2023-09-02T18:35:00.368Z,3.00
2023-09-02T18:37:28.685Z,3.10
2023-09-02T18:39:56.720Z,3.72
2023-09-02T18:42:24.939Z,3.55
2023-09-02T18:44:54.283Z,3.10
2023-09-02T18:47:22.284Z,3.00
2023-09-02T18:49:50.261Z,3.13
2023-09-02T18:52:18.239Z,3.00
2023-09-02T18:54:46.165Z,2.50
2023-09-02T18:57:14.211Z,2.75
2023-09-02T18:59:42.187Z,3.28
2023-09-02T19:02:11.656Z,2.67
2023-09-02T19:04:39.726Z,3.10
2023-09-02T19:07:07.829Z,3.33
2023-09-02T19:09:35.859Z,2.60
2023-09-02T19:12:03.946Z,2.80
2023-09-02T19:14:31.891Z,2.83
2023-09-02T19:17:00.214Z,2.67
2023-09-02T19:19:32.603Z,2.70
2023-09-02T19:22:00.995Z,2.63
2023-09-02T19:24:29.224Z,2.63
2023-09-02T19:26:58.620Z,2.80
2023-09-02T19:29:26.632Z,2.65
2023-09-02T19:31:54.530Z,3.00
2023-09-02T19:34:24.027Z,3.22
2023-09-02T19:36:53.341Z,3.45
2023-09-02T19:39:22.682Z,5.10
2023-09-02T19:41:52.341Z,3.92
2023-09-02T19:44:20.320Z,4.57
2023-09-02T19:46:48.401Z,3.55
2023-09-02T19:49:23.306Z,3.30
2023-09-02T19:51:52.836Z,3.25
2023-09-02T19:54:20.885Z,3.30
2023-09-02T19:56:48.928Z,3.85
2023-09-02T19:59:17.056Z,3.47
2023-09-02T20:01:45.078Z,3.60
2023-09-02T20:04:13.099Z,3.70
2023-09-02T20:06:41.090Z,3.15
2023-09-02T20:09:11.250Z,3.63
2023-09-02T20:11:39.268Z,3.25
2023-09-02T20:14:07.541Z,3.80
2023-09-02T20:16:36.357Z,3.80
2023-09-02T20:19:04.513Z,4.47
2023-09-02T20:21:32.517Z,4.00
2023-09-02T20:24:01.451Z,4.30
2023-09-02T20:26:30.913Z,4.18
2023-09-02T20:28:59.430Z,3.67
2023-09-02T20:31:29.617Z,4.07
2023-09-02T20:33:57.687Z,4.13
2023-09-02T20:36:26.176Z,3.85
2023-09-02T20:38:56.074Z,4.32
2023-09-02T20:41:24.392Z,4.22
2023-09-02T20:43:55.199Z,4.00
2023-09-02T20:46:23.195Z,4.30
2023-09-02T20:48:51.151Z,4.47
2023-09-02T20:51:19.836Z,4.63
2023-09-02T20:53:47.965Z,4.28
2023-09-02T20:56:15.887Z,4.82
2023-09-02T20:58:44.048Z,4.35
2023-09-02T21:01:13.536Z,4.20
2023-09-02T21:03:41.530Z,4.75
2023-09-02T21:06:11.287Z,5.22
2023-09-02T21:08:39.971Z,4.72
2023-09-02T21:11:12.234Z,4.60
2023-09-02T21:13:40.962Z,5.43
2023-09-02T21:16:13.963Z,4.60
2023-09-02T21:18:41.944Z,4.57
2023-09-02T21:21:10.392Z,4.57
2023-09-02T21:23:38.621Z,4.72
2023-09-02T21:26:11.447Z,4.53
2023-09-02T21:28:40.341Z,4.82
2023-09-02T21:31:09.325Z,4.47
2023-09-02T21:33:39.611Z,4.53
2023-09-02T21:36:07.666Z,4.38
2023-09-02T21:38:35.703Z,4.20
2023-09-02T21:41:05.259Z,4.13
2023-09-02T21:43:33.513Z,3.75
2023-09-02T21:46:01.956Z,3.28
2023-09-02T21:48:32.234Z,2.63
2023-09-02T21:51:02.703Z,3.42
2023-09-02T21:53:31.153Z,3.25
2023-09-02T21:55:59.664Z,2.80
2023-09-02T21:58:30.592Z,3.40
2023-09-02T22:01:03.671Z,3.50
2023-09-02T22:03:32.428Z,3.28
2023-09-02T22:06:03.420Z,4.10
2023-09-02T22:08:31.630Z,3.00
2023-09-02T22:11:00.309Z,3.50
2023-09-02T22:13:31.820Z,3.30
2023-09-02T22:16:02.287Z,3.85
2023-09-02T22:18:30.684Z,3.47
2023-09-02T22:20:59.698Z,3.60
2023-09-02T22:23:30.625Z,3.72
2023-09-02T22:26:01.474Z,4.20
2023-09-02T22:28:33.433Z,3.72
2023-09-02T22:31:02.079Z,4.18
2023-09-02T22:33:34.569Z,4.05
2023-09-02T22:36:03.233Z,4.43
2023-09-02T22:38:54.726Z,4.60
2023-09-02T22:41:22.652Z,4.15
2023-09-02T22:43:50.693Z,4.75
2023-09-02T22:46:18.710Z,4.18
2023-09-02T22:48:46.692Z,5.05
2023-09-02T22:51:14.710Z,4.45
2023-09-02T22:53:43.993Z,3.60
2023-09-02T22:56:13.075Z,3.90
2023-09-02T22:58:41.243Z,3.60
2023-09-02T23:01:14.027Z,3.67
2023-09-02T23:03:44.498Z,3.20
2023-09-02T23:06:13.693Z,3.75
2023-09-02T23:08:46.051Z,3.70
2023-09-02T23:11:14.087Z,3.47
2023-09-02T23:13:43.527Z,4.00
2023-09-02T23:16:11.681Z,3.30
2023-09-02T23:18:39.733Z,3.80
2023-09-02T23:21:11.925Z,3.80
2023-09-02T23:23:40.212Z,3.97
2023-09-02T23:26:09.915Z,4.07
2023-09-02T23:28:39.684Z,4.53
2023-09-02T23:31:08.743Z,3.95
2023-09-02T23:33:38.494Z,4.70
2023-09-02T23:36:07.415Z,4.65
2023-09-02T23:38:35.543Z,4.55
2023-09-02T23:41:04.080Z,4.72
2023-09-02T23:43:33.841Z,4.72
2023-09-02T23:46:01.846Z,4.93
2023-09-02T23:48:30.367Z,4.72
2023-09-02T23:50:59.508Z,4.50
2023-09-02T23:53:27.973Z,4.63
2023-09-02T23:55:56.745Z,4.78
2023-09-02T23:58:24.770Z,4.65
